Arbor, Missouri
Current Conditions -  °F | °C
As of 8:53 PM on Thursday 27 Nov 2014 (Local Time) from KCGI Reporting Station
Clear Clear  
Wind Chill: -1°   Ceiling: Unl
Heat Index: -1°   Visibility: 8mi
Dew Point: -3°   Wind: 0mph
Humidity: 88%   Direction: NA
Pressure: 30.48"   Gusts: NA
Location:  37.1651°N, 89.623°W
Report Text: KCGI 280253Z AUTO 00000KT 8SM CLR M01/M03 A3048 RMK AO2 SLP323 T10111028 50003 TSNO
Loading
Personal Weather Stations






























Interactive Weather Map New forecast layout! Learn more

10-Day Weather Forecast

Advertisements
Track Severe Weather on mobile